Time;durP1;ratioP1;P1;durP2;ratioP2;P2;SDS_P1;SDS_P2;PMS_P1;PMS_P2;Temp;Humidity;BMP_temperature;BMP_pressure;BME280_temperature;BME280_humidity;BME280_pressure;Samples;Min_cycle;Max_cycle;Signal;HPM_P1;HPM_P2
2022/04/15 00:00:42;;;;;;;9.27;5.50;;;8.40;99.90;;;;;;5062561;28;20610;-76
2022/04/15 00:03:08;;;;;;;12.30;5.60;;;8.40;99.90;;;;;;5044806;28;20047;-76
2022/04/15 00:05:40;;;;;;;17.60;5.97;;;8.40;99.90;;;;;;5052303;28;20041;-76
2022/04/15 00:08:13;;;;;;;10.15;5.20;;;8.40;99.90;;;;;;5044236;28;20076;-78
2022/04/15 00:10:45;;;;;;;10.68;5.95;;;8.50;99.90;;;;;;5053091;28;20413;-76
2022/04/15 00:13:12;;;;;;;10.82;5.18;;;8.50;99.90;;;;;;5064355;28;20075;-76
2022/04/15 00:15:38;;;;;;;10.48;5.28;;;8.50;99.90;;;;;;5043680;28;20053;-76
2022/04/15 00:18:05;;;;;;;22.38;6.72;;;8.50;99.90;;;;;;5047817;28;20078;-76
2022/04/15 00:20:33;;;;;;;9.95;5.28;;;8.60;99.90;;;;;;5031280;28;20048;-76
2022/04/15 00:22:59;;;;;;;12.13;4.88;;;8.60;99.90;;;;;;5033565;28;20053;-77
2022/04/15 00:25:25;;;;;;;11.60;4.80;;;8.60;99.90;;;;;;5049305;28;20084;-76
2022/04/15 00:27:54;;;;;;;12.77;4.22;;;8.60;99.90;;;;;;5040094;28;20105;-76
2022/04/15 00:30:21;;;;;;;9.07;4.00;;;8.70;99.90;;;;;;5060900;28;20380;-76
2022/04/15 00:32:46;;;;;;;9.95;4.00;;;8.70;99.90;;;;;;5050256;28;20171;-76
2022/04/15 00:35:12;;;;;;;7.25;3.70;;;8.70;99.90;;;;;;5049244;28;20124;-76
2022/04/15 00:37:38;;;;;;;7.32;3.40;;;8.70;99.90;;;;;;5067953;28;20037;-76
2022/04/15 00:40:06;;;;;;;6.70;3.67;;;8.80;99.90;;;;;;5061300;28;20423;-76
2022/04/15 00:42:32;;;;;;;4.22;3.28;;;8.80;99.90;;;;;;5059654;28;20036;-76
2022/04/15 00:44:59;;;;;;;13.30;4.35;;;8.80;99.90;;;;;;5075218;28;20046;-76
2022/04/15 00:47:47;;;;;;;9.07;3.30;;;8.90;99.90;;;;;;5051046;28;20057;-75
2022/04/15 00:50:13;;;;;;;6.47;2.90;;;8.90;99.90;;;;;;5068640;28;20140;-78
2022/04/15 00:52:45;;;;;;;6.53;3.10;;;8.80;99.90;;;;;;5063330;28;20207;-76
2022/04/15 00:55:12;;;;;;;7.28;3.05;;;8.90;99.90;;;;;;5059578;28;20052;-76
2022/04/15 00:57:43;;;;;;;6.68;3.17;;;8.90;99.90;;;;;;5057323;28;20045;-74
2022/04/15 01:00:14;;;;;;;7.47;3.30;;;8.80;99.90;;;;;;5049959;28;20061;-75
2022/04/15 01:02:39;;;;;;;14.48;3.17;;;8.90;99.90;;;;;;5046591;28;20076;-76
2022/04/15 01:05:08;;;;;;;9.48;3.90;;;8.90;99.90;;;;;;5062315;28;20064;-75
2022/04/15 01:07:42;;;;;;;10.95;3.70;;;9.00;99.90;;;;;;5061820;28;20080;-76
2022/04/15 01:10:11;;;;;;;9.70;3.50;;;9.00;99.90;;;;;;5061643;28;20121;-75
2022/04/15 01:12:39;;;;;;;8.23;3.17;;;9.30;99.90;;;;;;5044773;28;20033;-75
2022/04/15 01:15:08;;;;;;;7.25;3.35;;;9.00;99.90;;;;;;5040294;28;20124;-75
2022/04/15 01:17:33;;;;;;;13.50;3.35;;;9.00;99.90;;;;;;5037687;28;20051;-75
2022/04/15 01:20:00;;;;;;;7.30;3.25;;;9.00;99.90;;;;;;5051385;28;20045;-76
2022/04/15 01:22:32;;;;;;;9.85;3.45;;;9.10;99.90;;;;;;5048383;28;20040;-75
2022/04/15 01:24:58;;;;;;;7.45;3.28;;;9.10;99.90;;;;;;5057398;28;20045;-76
2022/04/15 01:27:38;;;;;;;8.15;2.88;;;9.00;99.90;;;;;;5040558;28;20079;-75
2022/04/15 01:30:13;;;;;;;8.77;3.13;;;9.00;99.90;;;;;;5058143;28;20046;-75
2022/04/15 01:32:38;;;;;;;10.52;3.10;;;9.10;99.90;;;;;;5039116;28;20083;-75
2022/04/15 01:35:06;;;;;;;10.80;3.33;;;9.00;99.90;;;;;;5033079;28;20053;-75
2022/04/15 01:37:34;;;;;;;9.80;3.75;;;9.00;99.90;;;;;;5043917;28;20049;-76
2022/04/15 01:40:00;;;;;;;12.27;3.80;;;9.10;99.90;;;;;;5035258;28;20144;-76
2022/04/15 01:42:26;;;;;;;14.63;3.67;;;9.10;99.90;;;;;;5045840;28;20123;-75
2022/04/15 01:44:51;;;;;;;7.30;3.92;;;9.10;99.90;;;;;;5052154;28;20048;-75
2022/04/15 01:47:17;;;;;;;12.27;4.07;;;9.10;99.90;;;;;;5037858;28;20098;-76
2022/04/15 01:49:43;;;;;;;12.20;5.03;;;9.10;99.90;;;;;;5035907;28;20041;-76
2022/04/15 01:52:18;;;;;;;18.67;4.63;;;9.10;99.90;;;;;;5034035;28;20067;-75
2022/04/15 01:54:45;;;;;;;21.83;5.53;;;9.10;99.90;;;;;;5052424;28;20501;-75
2022/04/15 01:57:11;;;;;;;17.35;4.63;;;9.10;99.90;;;;;;5045558;28;20095;-75
2022/04/15 01:59:37;;;;;;;13.95;4.82;;;9.10;99.90;;;;;;5067795;28;20056;-75
2022/04/15 02:02:04;;;;;;;8.73;3.50;;;9.10;99.90;;;;;;5042954;28;20040;-75
2022/04/15 02:04:32;;;;;;;8.15;3.67;;;9.10;99.90;;;;;;5058297;28;20037;-74
2022/04/15 02:07:01;;;;;;;14.90;4.57;;;9.10;99.90;;;;;;5036346;28;20120;-74
2022/04/15 02:09:27;;;;;;;16.52;4.93;;;9.10;99.90;;;;;;5035380;28;20053;-74
2022/04/15 02:11:56;;;;;;;17.75;4.93;;;9.10;99.90;;;;;;5060150;28;20029;-74
2022/04/15 02:14:22;;;;;;;15.30;5.22;;;9.10;99.90;;;;;;5067928;28;20036;-75
2022/04/15 02:16:51;;;;;;;20.52;5.93;;;9.10;99.90;;;;;;5069278;28;20151;-75
2022/04/15 02:19:17;;;;;;;17.90;6.38;;;9.10;99.90;;;;;;5041892;28;20083;-75
2022/04/15 02:21:43;;;;;;;13.88;5.55;;;9.00;99.90;;;;;;5046971;28;20060;-74
2022/04/15 02:24:08;;;;;;;12.85;5.40;;;9.00;99.90;;;;;;5065011;28;20487;-74
2022/04/15 02:26:34;;;;;;;20.17;6.45;;;9.10;99.90;;;;;;5065140;28;20484;-75
2022/04/15 02:29:00;;;;;;;17.73;6.38;;;9.10;99.90;;;;;;5040320;28;20514;-75
2022/04/15 02:31:26;;;;;;;16.85;7.07;;;9.10;99.90;;;;;;5067715;28;20033;-75
2022/04/15 02:33:55;;;;;;;15.95;6.07;;;9.00;99.90;;;;;;5033706;28;20049;-74
2022/04/15 02:36:20;;;;;;;20.13;8.32;;;9.00;99.90;;;;;;5045246;28;20051;-75
2022/04/15 02:38:46;;;;;;;15.02;8.80;;;9.10;99.90;;;;;;5045721;28;20506;-75
2022/04/15 02:41:13;;;;;;;13.77;8.55;;;9.10;99.90;;;;;;5075575;28;20045;-75
2022/04/15 02:43:39;;;;;;;12.65;8.57;;;9.10;99.90;;;;;;5063463;28;20183;-75
2022/04/15 02:46:07;;;;;;;15.70;9.23;;;9.10;99.90;;;;;;5039227;28;20118;-75
2022/04/15 02:48:33;;;;;;;16.27;8.48;;;9.10;99.90;;;;;;5065300;28;20039;-75
2022/04/15 02:51:00;;;;;;;15.13;9.02;;;9.10;99.90;;;;;;5034071;28;20052;-75
2022/04/15 02:53:26;;;;;;;15.88;9.02;;;9.00;99.90;;;;;;5052956;28;20053;-75
2022/04/15 02:55:52;;;;;;;12.07;8.90;;;9.00;99.90;;;;;;5032667;28;20056;-76
2022/04/15 02:58:18;;;;;;;10.15;7.40;;;9.00;99.90;;;;;;5043055;28;20128;-76
2022/04/15 03:00:44;;;;;;;11.00;7.50;;;8.90;99.90;;;;;;5050510;28;20213;-75
2022/04/15 03:03:10;;;;;;;8.65;6.38;;;8.90;99.90;;;;;;5055722;28;20056;-77
2022/04/15 03:05:36;;;;;;;8.15;5.43;;;8.80;99.90;;;;;;5035066;28;20463;-76
2022/04/15 03:08:01;;;;;;;8.90;5.72;;;8.80;99.90;;;;;;5036966;28;20069;-74
2022/04/15 03:10:29;;;;;;;6.97;4.95;;;8.80;99.90;;;;;;5068808;28;20127;-77
2022/04/15 03:12:55;;;;;;;6.72;4.45;;;8.80;99.90;;;;;;5044487;28;20044;-74
2022/04/15 03:15:21;;;;;;;8.30;4.43;;;8.70;99.90;;;;;;5041153;28;21682;-74
2022/04/15 03:17:46;;;;;;;6.28;5.00;;;8.60;99.90;;;;;;5051338;28;20052;-75
2022/04/15 03:20:13;;;;;;;8.88;5.15;;;8.60;99.90;;;;;;5033640;28;20052;-75
2022/04/15 03:22:42;;;;;;;6.97;4.82;;;8.60;99.90;;;;;;5067982;28;20052;-75
2022/04/15 03:25:13;;;;;;;7.70;4.90;;;8.50;99.90;;;;;;5057246;28;20082;-75
2022/04/15 03:27:38;;;;;;;7.50;4.65;;;8.50;99.90;;;;;;5066235;28;20365;-75
2022/04/15 03:30:05;;;;;;;8.70;5.20;;;8.50;99.90;;;;;;5065302;28;20044;-74
2022/04/15 03:32:34;;;;;;;7.32;4.70;;;8.40;99.90;;;;;;5039998;28;20118;-74
2022/04/15 03:34:59;;;;;;;7.30;5.00;;;8.40;99.90;;;;;;5033606;28;20123;-75
2022/04/15 03:37:25;;;;;;;7.70;4.85;;;8.30;99.90;;;;;;5035953;28;20123;-74
2022/04/15 03:39:52;;;;;;;5.88;4.70;;;8.30;99.90;;;;;;5051599;28;20403;-74
2022/04/15 03:42:18;;;;;;;5.35;4.18;;;8.20;99.90;;;;;;5057989;28;20045;-74
2022/04/15 03:44:44;;;;;;;7.35;4.32;;;8.30;99.90;;;;;;5056533;28;20085;-74
2022/04/15 03:47:10;;;;;;;5.07;3.88;;;8.30;99.90;;;;;;5046609;28;20075;-74
2022/04/15 03:49:36;;;;;;;6.35;4.18;;;8.20;99.90;;;;;;5031420;28;20041;-74
2022/04/15 03:52:01;;;;;;;6.35;4.07;;;8.30;99.90;;;;;;5050354;28;20083;-75
2022/04/15 03:54:27;;;;;;;6.93;4.40;;;8.30;99.90;;;;;;5036771;28;20048;-75
2022/04/15 03:56:52;;;;;;;5.10;4.20;;;8.30;99.90;;;;;;5060762;28;20094;-75
2022/04/15 03:59:18;;;;;;;7.32;4.50;;;8.30;99.90;;;;;;5066677;28;20172;-74
2022/04/15 04:01:44;;;;;;;8.82;4.30;;;8.30;99.90;;;;;;5072556;28;20478;-74
2022/04/15 04:04:13;;;;;;;5.85;3.80;;;8.30;99.90;;;;;;5076398;28;20040;-76
2022/04/15 04:06:39;;;;;;;6.13;3.90;;;8.30;99.90;;;;;;5077945;28;20033;-75
2022/04/15 04:09:04;;;;;;;6.00;3.50;;;8.30;99.90;;;;;;5045659;28;20051;-74
2022/04/15 04:11:30;;;;;;;5.20;4.05;;;8.30;99.90;;;;;;5061852;28;20538;-76
2022/04/15 04:13:55;;;;;;;4.80;3.60;;;8.30;99.90;;;;;;5038642;28;20045;-75
2022/04/15 04:16:21;;;;;;;5.38;2.28;;;8.30;99.90;;;;;;5031636;28;20402;-75
2022/04/15 04:18:47;;;;;;;3.63;2.35;;;8.20;99.90;;;;;;5050707;28;20109;-75
2022/04/15 04:21:12;;;;;;;4.20;2.90;;;8.20;99.90;;;;;;5032532;28;20045;-76
2022/04/15 04:23:38;;;;;;;8.23;3.47;;;8.10;99.90;;;;;;5059313;28;20045;-75
2022/04/15 04:26:04;;;;;;;5.90;3.03;;;8.10;99.90;;;;;;5059333;28;20473;-76
2022/04/15 04:28:31;;;;;;;4.15;3.08;;;8.10;99.90;;;;;;5040145;28;20032;-74
2022/04/15 04:30:57;;;;;;;7.13;3.30;;;8.10;99.90;;;;;;5042906;28;20085;-75
2022/04/15 04:33:22;;;;;;;5.47;3.47;;;8.00;99.90;;;;;;5059740;28;20426;-75
2022/04/15 04:35:49;;;;;;;4.97;3.00;;;8.00;99.90;;;;;;5057394;28;20049;-75
2022/04/15 04:38:14;;;;;;;6.53;3.35;;;8.00;99.90;;;;;;5049052;28;20041;-76
2022/04/15 04:40:41;;;;;;;5.85;2.88;;;8.00;99.90;;;;;;5049065;28;20102;-74
2022/04/15 04:43:08;;;;;;;4.95;2.60;;;7.90;99.90;;;;;;5063906;28;20144;-76
2022/04/15 04:45:34;;;;;;;8.02;2.50;;;7.90;99.90;;;;;;5062848;28;20399;-76
2022/04/15 04:48:04;;;;;;;4.72;2.20;;;7.90;99.90;;;;;;5067981;28;20036;-76
2022/04/15 04:50:31;;;;;;;3.95;2.25;;;7.90;99.90;;;;;;5061012;28;20056;-75
2022/04/15 04:52:58;;;;;;;5.38;3.25;;;7.90;99.90;;;;;;5065491;28;20048;-76
2022/04/15 04:55:23;;;;;;;6.60;3.67;;;7.90;99.90;;;;;;5053447;28;20090;-75
2022/04/15 04:57:49;;;;;;;9.75;3.33;;;7.90;99.90;;;;;;5051750;28;20045;-75
2022/04/15 05:00:17;;;;;;;6.10;3.90;;;7.90;99.90;;;;;;5059462;28;20460;-75
2022/04/15 05:02:44;;;;;;;4.93;3.72;;;7.80;99.90;;;;;;5061613;28;20499;-75
2022/04/15 05:05:10;;;;;;;9.23;4.13;;;7.80;99.90;;;;;;5051920;28;20129;-77
2022/04/15 05:07:37;;;;;;;6.22;4.28;;;7.80;99.90;;;;;;5063113;28;20091;-75
2022/04/15 05:10:04;;;;;;;9.60;4.85;;;7.80;99.90;;;;;;5062383;28;20037;-75
2022/04/15 05:12:30;;;;;;;9.80;4.50;;;7.80;99.90;;;;;;5071373;28;20044;-75
2022/04/15 05:14:55;;;;;;;7.20;4.18;;;7.80;99.90;;;;;;5065583;28;20032;-75
2022/04/15 05:17:21;;;;;;;9.27;4.20;;;7.80;99.90;;;;;;5055688;28;20045;-76
2022/04/15 05:19:46;;;;;;;12.40;5.28;;;7.80;99.90;;;;;;5074043;28;20045;-75
2022/04/15 05:22:12;;;;;;;8.07;5.25;;;7.80;99.90;;;;;;5061615;28;20033;-76
2022/04/15 05:24:38;;;;;;;9.27;5.03;;;7.80;99.90;;;;;;5042814;28;20043;-75
2022/04/15 05:27:07;;;;;;;8.35;5.63;;;7.80;99.90;;;;;;5043019;28;20036;-75
2022/04/15 05:29:33;;;;;;;7.53;5.50;;;7.80;99.90;;;;;;5055722;28;20113;-75
2022/04/15 05:31:59;;;;;;;9.40;4.82;;;7.80;99.90;;;;;;5066672;28;20040;-73
2022/04/15 05:34:25;;;;;;;8.13;5.20;;;7.90;99.90;;;;;;5055316;28;20105;-73
2022/04/15 05:36:50;;;;;;;6.72;5.00;;;7.90;99.90;;;;;;5074894;28;20048;-76
2022/04/15 05:39:16;;;;;;;11.63;5.10;;;8.00;99.90;;;;;;5048684;28;20048;-73
2022/04/15 05:41:41;;;;;;;14.65;6.10;;;8.00;99.90;;;;;;5065185;28;20112;-72
2022/04/15 05:44:08;;;;;;;8.90;5.30;;;8.00;99.90;;;;;;5050593;28;20750;-72
2022/04/15 05:46:37;;;;;;;11.60;5.43;;;8.10;99.90;;;;;;5047134;28;20037;-72
2022/04/15 05:49:04;;;;;;;14.65;6.03;;;8.10;99.90;;;;;;5051783;28;20056;-74
2022/04/15 05:51:29;;;;;;;15.45;6.25;;;8.10;99.90;;;;;;5076850;28;20032;-73
2022/04/15 05:53:55;;;;;;;13.60;6.93;;;8.10;99.90;;;;;;5041393;28;20456;-72
2022/04/15 05:56:21;;;;;;;10.85;6.68;;;8.10;99.90;;;;;;5054206;28;20068;-70
2022/04/15 05:58:49;;;;;;;11.35;5.82;;;8.10;99.90;;;;;;5058952;28;20049;-74
2022/04/15 06:01:17;;;;;;;12.00;5.93;;;8.10;99.90;;;;;;5038129;28;20472;-71
2022/04/15 06:03:43;;;;;;;12.55;6.57;;;8.10;99.90;;;;;;5054374;28;20504;-71
2022/04/15 06:06:08;;;;;;;11.88;6.25;;;8.10;99.90;;;;;;5032809;28;20071;-72
2022/04/15 06:08:34;;;;;;;9.65;6.43;;;8.20;99.90;;;;;;5065228;28;20096;-72
2022/04/15 06:11:00;;;;;;;11.68;6.35;;;8.20;99.90;;;;;;5049536;28;20072;-71
2022/04/15 06:13:26;;;;;;;11.02;6.20;;;8.20;99.90;;;;;;5035272;28;20047;-72
2022/04/15 06:15:56;;;;;;;11.10;6.68;;;8.20;99.90;;;;;;5071617;28;20478;-72
2022/04/15 06:18:23;;;;;;;10.98;6.68;;;8.20;99.90;;;;;;5067494;28;20043;-72
2022/04/15 06:20:49;;;;;;;12.40;7.50;;;8.20;99.90;;;;;;5053076;28;20055;-72
2022/04/15 06:23:16;;;;;;;14.77;7.72;;;8.30;99.90;;;;;;5039630;28;20436;-71
2022/04/15 06:25:51;;;;;;;11.10;7.63;;;8.30;99.90;;;;;;5069114;28;20085;-72
2022/04/15 06:28:17;;;;;;;16.70;9.55;;;8.30;99.90;;;;;;5067371;28;20064;-72
2022/04/15 06:30:42;;;;;;;19.65;10.65;;;8.40;99.90;;;;;;5051353;28;20392;-72
2022/04/15 06:33:09;;;;;;;17.15;9.93;;;8.40;99.90;;;;;;5070173;28;20044;-71
2022/04/15 06:35:35;;;;;;;23.85;12.07;;;8.40;99.90;;;;;;5063096;28;20036;-72
2022/04/15 06:38:03;;;;;;;20.77;10.43;;;8.40;99.90;;;;;;5062594;28;20500;-71
2022/04/15 06:40:29;;;;;;;17.30;10.32;;;8.50;99.90;;;;;;5062904;28;20663;-71
2022/04/15 06:42:54;;;;;;;18.63;10.10;;;8.50;99.90;;;;;;5050896;28;20123;-71
2022/04/15 06:45:20;;;;;;;17.92;10.80;;;8.60;99.90;;;;;;5052842;28;20048;-72
2022/04/15 06:47:45;;;;;;;18.83;10.15;;;8.50;99.90;;;;;;5072208;28;20063;-71
2022/04/15 06:50:11;;;;;;;20.17;10.15;;;8.60;99.90;;;;;;5067332;28;20094;-71
2022/04/15 06:52:37;;;;;;;15.75;9.30;;;8.60;99.90;;;;;;5061276;28;20041;-71
2022/04/15 06:55:04;;;;;;;15.23;8.93;;;8.60;99.90;;;;;;5059038;28;20056;-70
2022/04/15 06:57:31;;;;;;;22.05;9.38;;;8.70;99.90;;;;;;5061323;28;20422;-70
2022/04/15 06:59:57;;;;;;;20.15;9.15;;;8.90;99.90;;;;;;5051962;28;20096;-71
2022/04/15 07:02:23;;;;;;;16.05;8.35;;;8.70;99.90;;;;;;5051780;28;20083;-71
2022/04/15 07:04:48;;;;;;;16.02;8.40;;;8.70;99.90;;;;;;5051851;28;20522;-71
2022/04/15 07:07:14;;;;;;;19.73;9.15;;;8.70;99.90;;;;;;5033073;28;20049;-71
2022/04/15 07:09:39;;;;;;;16.40;8.55;;;8.80;99.90;;;;;;5053084;28;20131;-73
2022/04/15 07:12:06;;;;;;;22.27;7.80;;;8.80;99.90;;;;;;5032965;28;20047;-72
2022/04/15 07:14:34;;;;;;;16.15;7.35;;;8.80;99.90;;;;;;5041965;28;20049;-71
2022/04/15 07:17:00;;;;;;;20.85;7.88;;;8.90;99.90;;;;;;5066291;28;20043;-72
2022/04/15 07:19:25;;;;;;;16.17;8.27;;;8.90;99.90;;;;;;5034227;28;20049;-72
2022/04/15 07:21:51;;;;;;;13.93;7.55;;;9.00;99.90;;;;;;5036611;28;20032;-72
2022/04/15 07:24:17;;;;;;;19.83;7.18;;;9.00;99.90;;;;;;5050791;28;20041;-73
2022/04/15 07:26:42;;;;;;;20.60;7.80;;;9.10;99.90;;;;;;5049706;28;20033;-72
2022/04/15 07:29:08;;;;;;;16.92;6.65;;;9.40;99.90;;;;;;5059666;28;20442;-73
2022/04/15 07:31:34;;;;;;;14.35;7.32;;;9.10;99.90;;;;;;5036250;28;20066;-72
2022/04/15 07:34:03;;;;;;;44.40;7.72;;;9.10;99.90;;;;;;5061982;28;20159;-72
2022/04/15 07:39:04;;;;;;;12.65;6.60;;;9.20;99.90;;;;;;5031791;28;20088;-72
2022/04/15 07:41:30;;;;;;;14.05;5.93;;;9.20;99.90;;;;;;5031345;28;20075;-71
2022/04/15 07:43:56;;;;;;;12.65;6.18;;;9.20;99.90;;;;;;5061157;28;20399;-71
2022/04/15 07:46:24;;;;;;;11.55;6.30;;;9.20;99.90;;;;;;5054212;28;20114;-72
2022/04/15 07:48:50;;;;;;;17.27;6.35;;;9.20;99.90;;;;;;5041647;28;20048;-74
2022/04/15 07:51:16;;;;;;;16.40;7.55;;;9.30;99.90;;;;;;5041124;28;20041;-76
2022/04/15 07:53:41;;;;;;;18.52;6.95;;;9.30;99.90;;;;;;5049352;28;20127;-73
2022/04/15 07:56:07;;;;;;;16.63;6.00;;;9.30;99.90;;;;;;5044250;28;20048;-74
2022/04/15 07:58:33;;;;;;;18.23;6.72;;;9.30;99.90;;;;;;5032169;28;20041;-74
2022/04/15 08:01:00;;;;;;;16.83;6.10;;;9.40;99.90;;;;;;5061069;28;20107;-74
2022/04/15 08:03:29;;;;;;;17.63;6.00;;;9.50;99.90;;;;;;5063023;28;20045;-74
2022/04/15 08:05:54;;;;;;;8.55;4.88;;;9.70;99.90;;;;;;5048713;28;20116;-75
2022/04/15 08:08:21;;;;;;;11.25;4.70;;;9.90;99.90;;;;;;5067870;28;20123;-74
2022/04/15 08:10:51;;;;;;;11.60;4.03;;;10.00;99.90;;;;;;5042479;28;20063;-74
2022/04/15 08:13:20;;;;;;;11.38;4.30;;;10.20;99.90;;;;;;5035548;28;20053;-75
2022/04/15 08:15:46;;;;;;;9.82;4.32;;;10.30;99.90;;;;;;5041738;28;20448;-74
2022/04/15 08:18:12;;;;;;;11.15;4.38;;;10.50;99.90;;;;;;5063009;28;20110;-75
2022/04/15 08:20:38;;;;;;;9.50;4.78;;;10.50;99.90;;;;;;5033161;28;21199;-78
2022/04/15 08:23:09;;;;;;;11.43;4.97;;;10.60;99.90;;;;;;5055207;28;20036;-74
2022/04/15 08:25:36;;;;;;;11.40;4.82;;;10.60;99.90;;;;;;5030673;28;20049;-74
2022/04/15 08:28:07;;;;;;;9.88;4.30;;;10.60;99.90;;;;;;5052349;28;20431;-75
2022/04/15 08:30:33;;;;;;;14.00;4.28;;;10.70;99.90;;;;;;5048432;28;20136;-77
2022/04/15 08:33:00;;;;;;;9.57;4.35;;;10.70;99.90;;;;;;5031307;28;20477;-76
2022/04/15 08:35:27;;;;;;;7.72;4.45;;;10.80;99.90;;;;;;5048449;28;20044;-76
2022/04/15 08:37:53;;;;;;;9.18;4.20;;;10.80;99.90;;;;;;5069128;28;20120;-75
2022/04/15 08:40:19;;;;;;;8.10;4.47;;;10.80;99.90;;;;;;5067798;28;20128;-75
2022/04/15 08:42:44;;;;;;;9.57;4.63;;;11.00;99.90;;;;;;5060190;28;20421;-76
2022/04/15 08:45:13;;;;;;;12.20;4.13;;;11.10;99.90;;;;;;5033096;28;20205;-75
2022/04/15 08:47:42;;;;;;;15.10;5.13;;;11.20;99.90;;;;;;5068842;28;20067;-76
2022/04/15 08:50:14;;;;;;;10.13;4.03;;;11.20;99.90;;;;;;5065936;28;20048;-75
2022/04/15 08:52:41;;;;;;;11.43;5.00;;;11.20;99.90;;;;;;5051132;28;20056;-76
2022/04/15 08:55:07;;;;;;;10.10;4.45;;;11.30;99.90;;;;;;5067997;28;20376;-76
2022/04/15 08:57:33;;;;;;;14.10;5.00;;;11.30;99.90;;;;;;5045852;28;20032;-76
2022/04/15 09:00:00;;;;;;;10.55;5.20;;;11.50;99.90;;;;;;5040172;28;20056;-76
2022/04/15 09:02:43;;;;;;;10.73;5.03;;;11.60;99.90;;;;;;5063934;28;20507;-74
2022/04/15 09:05:10;;;;;;;8.68;4.75;;;11.60;99.90;;;;;;5059533;28;20039;-75
2022/04/15 09:07:37;;;;;;;10.57;5.05;;;11.70;99.90;;;;;;5054913;28;20055;-75
2022/04/15 09:10:05;;;;;;;9.88;5.05;;;11.50;99.90;;;;;;5048609;28;20365;-75
2022/04/15 09:12:35;;;;;;;11.70;5.20;;;11.40;99.90;;;;;;5039329;28;20045;-76
2022/04/15 09:15:06;;;;;;;7.10;4.57;;;11.40;99.90;;;;;;5050112;28;20052;-76
2022/04/15 09:17:37;;;;;;;9.98;5.07;;;11.50;99.90;;;;;;5059230;28;20109;-75
2022/04/15 09:20:05;;;;;;;12.32;5.75;;;11.60;99.90;;;;;;5050502;28;20036;-75
2022/04/15 09:22:30;;;;;;;15.65;5.60;;;11.60;99.90;;;;;;5046547;28;20041;-76
2022/04/15 09:24:56;;;;;;;10.57;5.57;;;11.60;99.90;;;;;;5066377;28;20071;-76
2022/04/15 09:27:23;;;;;;;11.90;5.85;;;11.60;99.90;;;;;;5049350;28;20049;-75
2022/04/15 09:29:50;;;;;;;12.35;5.38;;;11.60;99.90;;;;;;5045357;28;20063;-75
2022/04/15 09:32:17;;;;;;;12.77;5.35;;;11.60;99.90;;;;;;5048382;28;20045;-75
2022/04/15 09:35:06;;;;;;;9.80;4.93;;;11.60;99.90;;;;;;5050182;28;20071;-75
2022/04/15 09:37:37;;;;;;;8.05;4.20;;;11.60;99.90;;;;;;5047992;28;20048;-75
2022/04/15 09:40:18;;;;;;;12.57;5.10;;;11.50;99.90;;;;;;5028332;28;20132;-75
2022/04/15 09:42:50;;;;;;;16.20;5.70;;;11.50;99.90;;;;;;5052202;28;20044;-75
2022/04/15 09:45:30;;;;;;;11.75;5.68;;;11.50;99.90;;;;;;5041969;28;20090;-76
2022/04/15 09:48:05;;;;;;;15.77;6.65;;;11.60;99.90;;;;;;5064931;28;20057;-75
2022/04/15 09:50:35;;;;;;;12.63;5.78;;;11.60;99.90;;;;;;5053319;28;20045;-76
2022/04/15 09:53:07;;;;;;;12.20;6.32;;;11.50;99.90;;;;;;5029079;28;20427;-74
2022/04/15 09:55:34;;;;;;;8.90;5.03;;;11.50;99.90;;;;;;5029863;28;20045;-74
2022/04/15 09:58:06;;;;;;;8.63;4.78;;;11.50;99.90;;;;;;5028883;28;20057;-74
2022/04/15 10:00:34;;;;;;;10.15;4.68;;;11.50;99.90;;;;;;5052231;28;20056;-75
2022/04/15 10:03:03;;;;;;;10.73;4.85;;;11.90;99.90;;;;;;5053611;28;20048;-75
2022/04/15 10:05:29;;;;;;;10.55;5.43;;;11.60;99.90;;;;;;5054041;28;20049;-74
2022/04/15 10:07:56;;;;;;;13.80;5.18;;;11.70;99.90;;;;;;5059745;28;20040;-74
2022/04/15 10:10:22;;;;;;;8.10;4.80;;;11.70;99.90;;;;;;5072003;28;20038;-74
2022/04/15 10:12:49;;;;;;;9.18;5.10;;;11.70;99.90;;;;;;5065409;28;20088;-75
2022/04/15 10:15:15;;;;;;;12.30;4.90;;;11.70;99.90;;;;;;5050755;28;20043;-76
2022/04/15 10:17:42;;;;;;;8.88;4.80;;;11.70;99.90;;;;;;5056953;28;20036;-75
2022/04/15 10:20:08;;;;;;;8.80;4.55;;;11.70;99.90;;;;;;5071697;28;20049;-75
2022/04/15 10:22:42;;;;;;;6.32;4.10;;;11.80;99.90;;;;;;5038533;28;20392;-76
2022/04/15 10:25:08;;;;;;;9.95;4.32;;;11.80;99.90;;;;;;5033118;28;20089;-74
2022/04/15 10:27:34;;;;;;;6.88;4.30;;;11.80;99.90;;;;;;5051015;28;20049;-75
2022/04/15 10:30:20;;;;;;;9.25;5.15;;;11.80;99.90;;;;;;5050055;28;20067;-74
2022/04/15 10:32:48;;;;;;;10.02;5.40;;;11.80;99.90;;;;;;5033543;28;20116;-74
2022/04/15 10:35:26;;;;;;;7.70;4.15;;;11.80;99.90;;;;;;5051030;28;20127;-75
2022/04/15 10:38:09;;;;;;;8.38;4.38;;;11.90;99.90;;;;;;5056634;28;20468;-74
2022/04/15 10:40:35;;;;;;;8.30;4.60;;;11.80;99.90;;;;;;5052988;28;20086;-75
2022/04/15 10:43:05;;;;;;;10.30;5.03;;;11.80;99.90;;;;;;5060787;28;20040;-74
2022/04/15 10:45:36;;;;;;;6.45;4.57;;;11.80;99.90;;;;;;5051481;28;20087;-75
2022/04/15 10:48:03;;;;;;;6.07;3.95;;;11.70;99.90;;;;;;5035997;28;20046;-75
2022/04/15 10:50:32;;;;;;;6.97;3.75;;;11.70;99.90;;;;;;5036381;28;20334;-74
2022/04/15 10:53:26;;;;;;;7.47;3.85;;;11.70;99.90;;;;;;5051359;28;20071;-75
2022/04/15 10:55:52;;;;;;;6.32;4.22;;;11.70;99.90;;;;;;5031404;28;20060;-74
2022/04/15 10:58:20;;;;;;;5.88;3.55;;;11.80;99.90;;;;;;5035501;28;20048;-74
2022/04/15 11:01:19;;;;;;;6.85;4.15;;;11.70;99.90;;;;;;5053509;28;20148;-74
2022/04/15 11:03:56;;;;;;;7.15;4.03;;;11.70;99.90;;;;;;5031352;28;20483;-75
2022/04/15 11:06:28;;;;;;;7.97;4.57;;;11.70;99.90;;;;;;5033688;28;20049;-75
2022/04/15 11:08:54;;;;;;;11.23;4.53;;;11.60;99.90;;;;;;5051398;28;20041;-74
2022/04/15 11:11:34;;;;;;;8.70;4.07;;;11.60;99.90;;;;;;5057904;28;20105;-75
2022/04/15 11:14:04;;;;;;;9.32;5.55;;;11.70;99.90;;;;;;5036360;28;20063;-74
2022/04/15 11:16:53;;;;;;;7.25;4.22;;;11.70;99.90;;;;;;5046026;28;20071;-75
2022/04/15 11:19:24;;;;;;;9.13;4.40;;;11.60;99.90;;;;;;5033037;28;20495;-75
2022/04/15 11:21:50;;;;;;;10.10;4.65;;;11.60;99.90;;;;;;5054048;28;20045;-75
2022/04/15 11:24:26;;;;;;;6.78;3.80;;;11.60;99.90;;;;;;5057272;28;20041;-74
2022/04/15 11:26:58;;;;;;;7.63;4.20;;;11.60;99.90;;;;;;5069418;28;20055;-75
2022/04/15 11:29:27;;;;;;;;;;;11.60;99.90;;;;;;5070340;28;20113;-76
2022/04/15 11:32:06;;;;;;;7.03;3.95;;;11.60;99.90;;;;;;5037522;28;20069;-75
2022/04/15 11:34:32;;;;;;;7.88;4.00;;;11.60;99.90;;;;;;5054086;28;20049;-75
2022/04/15 11:37:03;;;;;;;9.43;4.75;;;11.60;99.90;;;;;;5048491;28;20053;-75
2022/04/15 11:39:29;;;;;;;8.00;4.20;;;11.60;99.90;;;;;;5057810;28;20102;-74
2022/04/15 11:41:59;;;;;;;7.18;3.97;;;11.60;99.90;;;;;;5068949;28;20428;-75
2022/04/15 11:44:32;;;;;;;10.48;4.38;;;11.50;99.90;;;;;;5032522;28;20056;-75
2022/04/15 11:47:15;;;;;;;12.65;4.25;;;11.50;99.90;;;;;;5042181;28;20106;-74
2022/04/15 11:49:42;;;;;;;8.75;5.57;;;11.50;99.90;;;;;;5034720;28;20071;-75
2022/04/15 11:52:08;;;;;;;9.77;4.38;;;11.50;99.90;;;;;;5049109;28;20045;-76
2022/04/15 11:54:35;;;;;;;8.00;4.13;;;11.50;99.90;;;;;;5035245;28;20047;-74
2022/04/15 11:57:06;;;;;;;9.05;4.57;;;11.50;99.90;;;;;;5056599;28;20376;-75
2022/04/15 11:59:39;;;;;;;7.20;4.57;;;11.60;99.90;;;;;;5055339;28;20048;-74
2022/04/15 12:02:05;;;;;;;9.73;4.50;;;11.60;99.90;;;;;;5031942;28;20049;-75
2022/04/15 12:04:31;;;;;;;6.97;4.13;;;11.60;99.90;;;;;;5049391;28;20091;-75
2022/04/15 12:06:57;;;;;;;7.72;4.68;;;11.60;99.90;;;;;;5089579;28;20483;-75
2022/04/15 12:09:25;;;;;;;9.38;4.50;;;11.60;99.90;;;;;;5090022;28;20075;-74
2022/04/15 12:12:01;;;;;;;6.60;3.95;;;11.60;99.90;;;;;;5066384;28;20681;-74
2022/04/15 12:14:37;;;;;;;10.10;4.55;;;11.60;99.90;;;;;;5085663;28;20376;-75
2022/04/15 12:17:07;;;;;;;7.03;4.57;;;11.50;99.90;;;;;;5053549;28;20055;-75
2022/04/15 12:19:33;;;;;;;15.43;5.13;;;11.50;99.90;;;;;;5035071;28;20048;-74
2022/04/15 12:22:00;;;;;;;10.27;4.20;;;11.50;99.90;;;;;;5058584;28;20104;-75
2022/04/15 12:24:30;;;;;;;10.90;5.15;;;11.50;99.90;;;;;;5066973;28;20048;-73
2022/04/15 12:27:01;;;;;;;13.45;4.78;;;11.50;99.90;;;;;;5037010;28;20040;-73
2022/04/15 12:32:19;;;;;;;9.23;3.80;;;11.30;99.90;;;;;;5054134;28;19982;-74
2022/04/15 12:34:46;;;;;;;6.28;4.13;;;11.30;99.90;;;;;;5049394;28;20110;-74
2022/04/15 12:37:34;;;;;;;9.88;5.22;;;11.30;99.90;;;;;;5031711;28;20044;-74
2022/04/15 12:40:06;;;;;;;7.90;4.75;;;11.30;99.90;;;;;;5033463;28;20129;-74
2022/04/15 12:42:34;;;;;;;9.40;4.82;;;11.20;99.90;;;;;;5060253;28;20032;-74
2022/04/15 12:45:00;;;;;;;11.98;4.80;;;11.20;99.90;;;;;;5030783;28;20056;-74
2022/04/15 12:47:29;;;;;;;11.00;5.00;;;11.20;99.90;;;;;;5053376;28;20373;-74
2022/04/15 12:50:15;;;;;;;11.30;4.50;;;11.30;99.90;;;;;;5050130;28;20062;-72
2022/04/15 12:52:42;;;;;;;9.77;4.30;;;11.20;99.90;;;;;;5051736;28;20072;-72
2022/04/15 12:55:08;;;;;;;14.02;4.90;;;11.20;99.90;;;;;;5029499;28;20041;-73
2022/04/15 12:57:36;;;;;;;9.93;4.53;;;11.30;99.90;;;;;;5065855;28;20182;-72